sensor_id;sensor_type;location;lat;lon;timestamp;temperature;humidity
48876;DHT22;34689;51.644;5.618;2022-11-18T00:02:19;9.20;99.90
48876;DHT22;34689;51.644;5.618;2022-11-18T00:04:45;9.10;99.90
48876;DHT22;34689;51.644;5.618;2022-11-18T00:07:10;9.10;99.90
48876;DHT22;34689;51.644;5.618;2022-11-18T00:09:36;9.10;99.90
48876;DHT22;34689;51.644;5.618;2022-11-18T00:12:02;9.10;99.90
48876;DHT22;34689;51.644;5.618;2022-11-18T00:14:46;9.10;99.90
48876;DHT22;34689;51.644;5.618;2022-11-18T00:17:13;9.00;99.90
48876;DHT22;34689;51.644;5.618;2022-11-18T00:19:39;9.00;99.90
48876;DHT22;34689;51.644;5.618;2022-11-18T00:22:06;9.00;99.90
48876;DHT22;34689;51.644;5.618;2022-11-18T00:24:33;9.00;99.90
48876;DHT22;34689;51.644;5.618;2022-11-18T00:26:59;9.00;99.90
48876;DHT22;34689;51.644;5.618;2022-11-18T00:29:25;8.90;99.90
48876;DHT22;34689;51.644;5.618;2022-11-18T00:31:53;8.90;99.90
48876;DHT22;34689;51.644;5.618;2022-11-18T00:34:19;8.90;99.90
48876;DHT22;34689;51.644;5.618;2022-11-18T00:36:46;8.90;99.90
48876;DHT22;34689;51.644;5.618;2022-11-18T00:39:14;8.90;99.90
48876;DHT22;34689;51.644;5.618;2022-11-18T00:41:40;8.90;99.90
48876;DHT22;34689;51.644;5.618;2022-11-18T00:44:24;8.90;99.90
48876;DHT22;34689;51.644;5.618;2022-11-18T00:46:50;8.90;99.90
48876;DHT22;34689;51.644;5.618;2022-11-18T00:49:15;8.90;99.90
48876;DHT22;34689;51.644;5.618;2022-11-18T00:51:43;8.90;99.90
48876;DHT22;34689;51.644;5.618;2022-11-18T00:54:09;8.90;99.90
48876;DHT22;34689;51.644;5.618;2022-11-18T00:56:35;8.90;99.90
48876;DHT22;34689;51.644;5.618;2022-11-18T00:59:00;8.90;99.90
48876;DHT22;34689;51.644;5.618;2022-11-18T01:01:26;8.90;99.90
48876;DHT22;34689;51.644;5.618;2022-11-18T01:03:52;8.90;99.90
48876;DHT22;34689;51.644;5.618;2022-11-18T01:06:18;8.90;99.90
48876;DHT22;34689;51.644;5.618;2022-11-18T01:08:43;8.90;99.90
48876;DHT22;34689;51.644;5.618;2022-11-18T01:11:09;8.90;99.90
48876;DHT22;34689;51.644;5.618;2022-11-18T01:13:56;8.90;99.90
48876;DHT22;34689;51.644;5.618;2022-11-18T01:16:24;8.90;99.90
48876;DHT22;34689;51.644;5.618;2022-11-18T01:18:50;9.00;99.90
48876;DHT22;34689;51.644;5.618;2022-11-18T01:21:16;9.00;99.90
48876;DHT22;34689;51.644;5.618;2022-11-18T01:23:41;9.00;99.90
48876;DHT22;34689;51.644;5.618;2022-11-18T01:26:11;9.00;99.90
48876;DHT22;34689;51.644;5.618;2022-11-18T01:28:38;9.00;99.90
48876;DHT22;34689;51.644;5.618;2022-11-18T01:31:09;9.00;99.90
48876;DHT22;34689;51.644;5.618;2022-11-18T01:33:37;9.10;99.90
48876;DHT22;34689;51.644;5.618;2022-11-18T01:36:03;9.00;99.90
48876;DHT22;34689;51.644;5.618;2022-11-18T01:38:29;9.10;99.90
48876;DHT22;34689;51.644;5.618;2022-11-18T01:40:55;9.10;99.90
48876;DHT22;34689;51.644;5.618;2022-11-18T01:43:22;9.10;99.90
48876;DHT22;34689;51.644;5.618;2022-11-18T01:45:49;9.10;99.90
48876;DHT22;34689;51.644;5.618;2022-11-18T01:48:30;9.10;99.90
48876;DHT22;34689;51.644;5.618;2022-11-18T01:51:12;9.10;99.90
48876;DHT22;34689;51.644;5.618;2022-11-18T01:53:50;9.10;99.90
48876;DHT22;34689;51.644;5.618;2022-11-18T01:56:22;9.20;99.90
48876;DHT22;34689;51.644;5.618;2022-11-18T01:58:55;9.20;99.90
48876;DHT22;34689;51.644;5.618;2022-11-18T02:01:22;9.20;99.90
48876;DHT22;34689;51.644;5.618;2022-11-18T02:03:48;9.20;99.90
48876;DHT22;34689;51.644;5.618;2022-11-18T02:06:14;9.20;99.90
48876;DHT22;34689;51.644;5.618;2022-11-18T02:08:41;9.30;99.90
48876;DHT22;34689;51.644;5.618;2022-11-18T02:11:14;9.30;99.90
48876;DHT22;34689;51.644;5.618;2022-11-18T02:14:00;9.30;99.90
48876;DHT22;34689;51.644;5.618;2022-11-18T02:27:27;9.40;99.90
48876;DHT22;34689;51.644;5.618;2022-11-18T02:30:07;9.50;99.90
48876;DHT22;34689;51.644;5.618;2022-11-18T02:32:42;9.50;99.90
48876;DHT22;34689;51.644;5.618;2022-11-18T02:35:25;9.50;99.90
48876;DHT22;34689;51.644;5.618;2022-11-18T02:38:03;9.50;99.90
48876;DHT22;34689;51.644;5.618;2022-11-18T02:40:35;9.50;99.90
48876;DHT22;34689;51.644;5.618;2022-11-18T02:43:27;9.50;99.90
48876;DHT22;34689;51.644;5.618;2022-11-18T02:45:57;9.60;99.90
48876;DHT22;34689;51.644;5.618;2022-11-18T02:48:26;9.50;99.90
48876;DHT22;34689;51.644;5.618;2022-11-18T02:50:52;9.50;99.90
48876;DHT22;34689;51.644;5.618;2022-11-18T02:53:20;9.50;99.90
48876;DHT22;34689;51.644;5.618;2022-11-18T02:55:47;9.50;99.90
48876;DHT22;34689;51.644;5.618;2022-11-18T02:58:16;9.50;99.90
48876;DHT22;34689;51.644;5.618;2022-11-18T03:00:43;9.50;99.90
48876;DHT22;34689;51.644;5.618;2022-11-18T03:09:30;9.50;99.90
48876;DHT22;34689;51.644;5.618;2022-11-18T03:12:10;9.60;99.90
48876;DHT22;34689;51.644;5.618;2022-11-18T03:17:40;9.60;99.90
48876;DHT22;34689;51.644;5.618;2022-11-18T03:20:11;9.60;99.90
48876;DHT22;34689;51.644;5.618;2022-11-18T03:30:47;9.60;99.90
48876;DHT22;34689;51.644;5.618;2022-11-18T03:33:19;9.60;99.90
48876;DHT22;34689;51.644;5.618;2022-11-18T03:35:49;9.60;99.90
48876;DHT22;34689;51.644;5.618;2022-11-18T03:38:22;9.60;99.90
48876;DHT22;34689;51.644;5.618;2022-11-18T03:40:53;9.60;99.90
48876;DHT22;34689;51.644;5.618;2022-11-18T03:43:22;9.60;99.90
48876;DHT22;34689;51.644;5.618;2022-11-18T03:45:52;9.60;99.90
48876;DHT22;34689;51.644;5.618;2022-11-18T03:48:27;9.60;99.90
48876;DHT22;34689;51.644;5.618;2022-11-18T03:51:06;9.60;99.90
48876;DHT22;34689;51.644;5.618;2022-11-18T03:53:36;9.60;99.90
48876;DHT22;34689;51.644;5.618;2022-11-18T03:56:12;9.60;99.90
48876;DHT22;34689;51.644;5.618;2022-11-18T04:01:42;9.60;99.90
48876;DHT22;34689;51.644;5.618;2022-11-18T04:04:10;9.60;99.90
48876;DHT22;34689;51.644;5.618;2022-11-18T04:09:32;9.60;99.90
48876;DHT22;34689;51.644;5.618;2022-11-18T04:12:06;9.50;99.90
48876;DHT22;34689;51.644;5.618;2022-11-18T04:14:35;9.50;99.90
48876;DHT22;34689;51.644;5.618;2022-11-18T04:17:16;9.60;99.90
48876;DHT22;34689;51.644;5.618;2022-11-18T04:19:42;9.50;99.90
48876;DHT22;34689;51.644;5.618;2022-11-18T04:22:09;9.50;99.90
48876;DHT22;34689;51.644;5.618;2022-11-18T04:24:35;9.50;99.90
48876;DHT22;34689;51.644;5.618;2022-11-18T04:27:03;9.50;99.90
48876;DHT22;34689;51.644;5.618;2022-11-18T04:29:30;9.50;99.90
48876;DHT22;34689;51.644;5.618;2022-11-18T04:31:56;9.50;99.90
48876;DHT22;34689;51.644;5.618;2022-11-18T04:34:22;9.40;99.90
48876;DHT22;34689;51.644;5.618;2022-11-18T04:36:48;9.50;99.90
48876;DHT22;34689;51.644;5.618;2022-11-18T04:39:14;9.50;99.90
48876;DHT22;34689;51.644;5.618;2022-11-18T04:41:39;9.50;99.90
48876;DHT22;34689;51.644;5.618;2022-11-18T04:44:30;9.40;99.90
48876;DHT22;34689;51.644;5.618;2022-11-18T04:46:58;9.40;99.90
48876;DHT22;34689;51.644;5.618;2022-11-18T04:49:25;9.40;99.90
48876;DHT22;34689;51.644;5.618;2022-11-18T04:51:52;9.40;99.90
48876;DHT22;34689;51.644;5.618;2022-11-18T04:54:18;9.40;99.90
48876;DHT22;34689;51.644;5.618;2022-11-18T04:56:45;9.40;99.90
48876;DHT22;34689;51.644;5.618;2022-11-18T04:59:12;9.40;99.90
48876;DHT22;34689;51.644;5.618;2022-11-18T05:01:38;9.30;99.90
48876;DHT22;34689;51.644;5.618;2022-11-18T05:04:04;9.30;99.90
48876;DHT22;34689;51.644;5.618;2022-11-18T05:06:31;9.30;99.90
48876;DHT22;34689;51.644;5.618;2022-11-18T05:08:58;9.30;99.90
48876;DHT22;34689;51.644;5.618;2022-11-18T05:11:25;9.30;99.90
48876;DHT22;34689;51.644;5.618;2022-11-18T05:14:09;9.30;99.90
48876;DHT22;34689;51.644;5.618;2022-11-18T05:16:35;9.30;99.90
48876;DHT22;34689;51.644;5.618;2022-11-18T05:19:02;9.30;99.90
48876;DHT22;34689;51.644;5.618;2022-11-18T05:21:28;9.30;99.90
48876;DHT22;34689;51.644;5.618;2022-11-18T05:23:54;9.30;99.90
48876;DHT22;34689;51.644;5.618;2022-11-18T05:26:20;9.30;99.90
48876;DHT22;34689;51.644;5.618;2022-11-18T05:28:45;9.30;99.90
48876;DHT22;34689;51.644;5.618;2022-11-18T05:31:13;9.30;99.90
48876;DHT22;34689;51.644;5.618;2022-11-18T05:33:39;9.30;99.90
48876;DHT22;34689;51.644;5.618;2022-11-18T05:36:07;9.30;99.90
48876;DHT22;34689;51.644;5.618;2022-11-18T05:38:33;9.30;99.90
48876;DHT22;34689;51.644;5.618;2022-11-18T05:40:59;9.30;99.90
48876;DHT22;34689;51.644;5.618;2022-11-18T05:43:25;9.20;99.90
48876;DHT22;34689;51.644;5.618;2022-11-18T05:45:51;9.20;99.90
48876;DHT22;34689;51.644;5.618;2022-11-18T05:48:17;9.20;99.90
48876;DHT22;34689;51.644;5.618;2022-11-18T05:50:46;9.10;99.90
48876;DHT22;34689;51.644;5.618;2022-11-18T05:53:12;9.10;99.90
48876;DHT22;34689;51.644;5.618;2022-11-18T05:55:48;9.00;99.90
48876;DHT22;34689;51.644;5.618;2022-11-18T05:58:16;9.00;99.90
48876;DHT22;34689;51.644;5.618;2022-11-18T06:00:42;9.00;99.90
48876;DHT22;34689;51.644;5.618;2022-11-18T06:03:15;8.90;99.90
48876;DHT22;34689;51.644;5.618;2022-11-18T06:05:42;8.90;99.90
48876;DHT22;34689;51.644;5.618;2022-11-18T06:08:09;8.90;99.90
48876;DHT22;34689;51.644;5.618;2022-11-18T06:10:37;8.80;99.90
48876;DHT22;34689;51.644;5.618;2022-11-18T06:13:08;8.80;99.90
48876;DHT22;34689;51.644;5.618;2022-11-18T06:15:38;8.80;99.90
48876;DHT22;34689;51.644;5.618;2022-11-18T06:18:26;8.80;99.90
48876;DHT22;34689;51.644;5.618;2022-11-18T06:20:58;8.80;99.90
48876;DHT22;34689;51.644;5.618;2022-11-18T06:23:25;8.80;99.90
48876;DHT22;34689;51.644;5.618;2022-11-18T06:25:52;8.80;99.90
48876;DHT22;34689;51.644;5.618;2022-11-18T06:28:19;8.80;99.90
48876;DHT22;34689;51.644;5.618;2022-11-18T06:30:44;8.80;99.90
48876;DHT22;34689;51.644;5.618;2022-11-18T06:33:10;8.70;99.90
48876;DHT22;34689;51.644;5.618;2022-11-18T06:35:36;8.70;99.90
48876;DHT22;34689;51.644;5.618;2022-11-18T06:38:01;8.70;99.90
48876;DHT22;34689;51.644;5.618;2022-11-18T06:40:27;8.70;99.90
48876;DHT22;34689;51.644;5.618;2022-11-18T06:42:53;8.80;99.90
48876;DHT22;34689;51.644;5.618;2022-11-18T06:45:37;8.70;99.90
48876;DHT22;34689;51.644;5.618;2022-11-18T06:48:02;8.70;99.90
48876;DHT22;34689;51.644;5.618;2022-11-18T06:50:29;8.70;99.90
48876;DHT22;34689;51.644;5.618;2022-11-18T06:52:55;8.70;99.90
48876;DHT22;34689;51.644;5.618;2022-11-18T06:55:21;8.70;99.90
48876;DHT22;34689;51.644;5.618;2022-11-18T06:57:46;8.70;99.90
48876;DHT22;34689;51.644;5.618;2022-11-18T07:00:13;8.60;99.90
48876;DHT22;34689;51.644;5.618;2022-11-18T07:02:39;8.60;99.90
48876;DHT22;34689;51.644;5.618;2022-11-18T07:05:05;8.60;99.90
48876;DHT22;34689;51.644;5.618;2022-11-18T07:07:33;8.60;99.90
48876;DHT22;34689;51.644;5.618;2022-11-18T07:10:01;8.60;99.90
48876;DHT22;34689;51.644;5.618;2022-11-18T07:12:26;8.60;99.90
48876;DHT22;34689;51.644;5.618;2022-11-18T07:14:52;8.60;99.90
48876;DHT22;34689;51.644;5.618;2022-11-18T07:17:18;8.60;99.90
48876;DHT22;34689;51.644;5.618;2022-11-18T07:19:43;8.60;99.90
48876;DHT22;34689;51.644;5.618;2022-11-18T07:22:09;8.60;99.90
48876;DHT22;34689;51.644;5.618;2022-11-18T07:24:35;8.60;99.90
48876;DHT22;34689;51.644;5.618;2022-11-18T07:27:02;8.60;99.90
48876;DHT22;34689;51.644;5.618;2022-11-18T07:29:28;8.60;99.90
48876;DHT22;34689;51.644;5.618;2022-11-18T07:31:53;8.60;99.90
48876;DHT22;34689;51.644;5.618;2022-11-18T07:34:19;8.60;99.90
48876;DHT22;34689;51.644;5.618;2022-11-18T07:36:45;8.60;99.90
48876;DHT22;34689;51.644;5.618;2022-11-18T07:39:10;8.60;99.90
48876;DHT22;34689;51.644;5.618;2022-11-18T07:41:38;8.60;99.90
48876;DHT22;34689;51.644;5.618;2022-11-18T07:44:05;8.60;99.90
48876;DHT22;34689;51.644;5.618;2022-11-18T07:46:36;8.60;99.90
48876;DHT22;34689;51.644;5.618;2022-11-18T07:49:04;8.60;99.90
48876;DHT22;34689;51.644;5.618;2022-11-18T07:51:33;8.60;99.90
48876;DHT22;34689;51.644;5.618;2022-11-18T07:54:04;8.60;99.90
48876;DHT22;34689;51.644;5.618;2022-11-18T07:56:29;8.60;99.90
48876;DHT22;34689;51.644;5.618;2022-11-18T07:58:55;8.60;99.90
48876;DHT22;34689;51.644;5.618;2022-11-18T08:01:23;8.60;99.90
48876;DHT22;34689;51.644;5.618;2022-11-18T08:03:49;8.60;99.90
48876;DHT22;34689;51.644;5.618;2022-11-18T08:06:17;8.60;99.90
48876;DHT22;34689;51.644;5.618;2022-11-18T08:08:43;8.70;99.90
48876;DHT22;34689;51.644;5.618;2022-11-18T08:11:12;8.70;99.90
48876;DHT22;34689;51.644;5.618;2022-11-18T08:13:38;8.70;99.90
48876;DHT22;34689;51.644;5.618;2022-11-18T08:16:04;8.70;99.90
48876;DHT22;34689;51.644;5.618;2022-11-18T08:18:35;8.70;99.90
48876;DHT22;34689;51.644;5.618;2022-11-18T08:21:02;8.80;99.90
48876;DHT22;34689;51.644;5.618;2022-11-18T08:23:27;8.80;99.90
48876;DHT22;34689;51.644;5.618;2022-11-18T08:26:04;8.80;99.90
48876;DHT22;34689;51.644;5.618;2022-11-18T08:28:30;8.80;99.90
48876;DHT22;34689;51.644;5.618;2022-11-18T08:30:56;8.80;99.90
48876;DHT22;34689;51.644;5.618;2022-11-18T08:33:22;8.80;99.90
48876;DHT22;34689;51.644;5.618;2022-11-18T08:35:48;8.80;99.90
48876;DHT22;34689;51.644;5.618;2022-11-18T08:38:13;8.80;99.90
48876;DHT22;34689;51.644;5.618;2022-11-18T08:40:44;8.80;99.90
48876;DHT22;34689;51.644;5.618;2022-11-18T08:43:11;8.80;99.90
48876;DHT22;34689;51.644;5.618;2022-11-18T08:45:40;8.90;99.90
48876;DHT22;34689;51.644;5.618;2022-11-18T08:48:05;8.90;99.90
48876;DHT22;34689;51.644;5.618;2022-11-18T08:50:31;8.90;99.90
48876;DHT22;34689;51.644;5.618;2022-11-18T08:52:59;8.90;99.90
48876;DHT22;34689;51.644;5.618;2022-11-18T08:55:25;8.90;99.90
48876;DHT22;34689;51.644;5.618;2022-11-18T08:57:50;8.90;99.90
48876;DHT22;34689;51.644;5.618;2022-11-18T09:00:16;8.90;99.90
48876;DHT22;34689;51.644;5.618;2022-11-18T09:02:42;8.90;99.90
48876;DHT22;34689;51.644;5.618;2022-11-18T09:05:08;8.90;99.90
48876;DHT22;34689;51.644;5.618;2022-11-18T09:07:33;8.90;99.90
48876;DHT22;34689;51.644;5.618;2022-11-18T09:09:59;9.00;99.90
48876;DHT22;34689;51.644;5.618;2022-11-18T09:12:25;9.00;99.90
48876;DHT22;34689;51.644;5.618;2022-11-18T09:14:50;9.00;99.90
48876;DHT22;34689;51.644;5.618;2022-11-18T09:17:16;9.10;99.90
48876;DHT22;34689;51.644;5.618;2022-11-18T09:19:42;9.10;99.90
48876;DHT22;34689;51.644;5.618;2022-11-18T09:22:08;9.10;99.90
48876;DHT22;34689;51.644;5.618;2022-11-18T09:24:34;9.20;99.90
48876;DHT22;34689;51.644;5.618;2022-11-18T09:27:05;9.20;99.90
48876;DHT22;34689;51.644;5.618;2022-11-18T09:29:31;9.20;99.90
48876;DHT22;34689;51.644;5.618;2022-11-18T09:31:57;9.20;99.90
48876;DHT22;34689;51.644;5.618;2022-11-18T09:34:26;9.30;99.90
48876;DHT22;34689;51.644;5.618;2022-11-18T09:36:52;9.40;99.90
48876;DHT22;34689;51.644;5.618;2022-11-18T09:39:20;9.50;99.90
48876;DHT22;34689;51.644;5.618;2022-11-18T09:49:41;9.70;99.90
48876;DHT22;34689;51.644;5.618;2022-11-18T09:52:26;9.90;99.90
48876;DHT22;34689;51.644;5.618;2022-11-18T09:54:53;10.70;99.90
48876;DHT22;34689;51.644;5.618;2022-11-18T09:57:22;11.50;99.90
48876;DHT22;34689;51.644;5.618;2022-11-18T09:59:48;12.20;99.90
48876;DHT22;34689;51.644;5.618;2022-11-18T10:05:16;12.00;99.90
48876;DHT22;34689;51.644;5.618;2022-11-18T10:16:52;12.20;99.90
48876;DHT22;34689;51.644;5.618;2022-11-18T10:20:03;12.40;99.90
48876;DHT22;34689;51.644;5.618;2022-11-18T10:25:19;12.80;99.90
48876;DHT22;34689;51.644;5.618;2022-11-18T10:27:47;13.00;99.90
48876;DHT22;34689;51.644;5.618;2022-11-18T10:30:17;13.00;99.90
48876;DHT22;34689;51.644;5.618;2022-11-18T10:33:01;13.00;99.90
48876;DHT22;34689;51.644;5.618;2022-11-18T10:35:33;12.90;99.90
48876;DHT22;34689;51.644;5.618;2022-11-18T10:40:30;12.40;99.90
48876;DHT22;34689;51.644;5.618;2022-11-18T10:42:57;12.20;99.90
48876;DHT22;34689;51.644;5.618;2022-11-18T10:48:15;12.10;99.90
48876;DHT22;34689;51.644;5.618;2022-11-18T10:50:47;12.00;99.90
48876;DHT22;34689;51.644;5.618;2022-11-18T10:56:03;12.00;99.90
48876;DHT22;34689;51.644;5.618;2022-11-18T10:58:31;12.00;99.90
48876;DHT22;34689;51.644;5.618;2022-11-18T11:06:29;11.80;99.90
48876;DHT22;34689;51.644;5.618;2022-11-18T11:09:03;11.70;99.90
48876;DHT22;34689;51.644;5.618;2022-11-18T11:11:35;11.70;99.90
48876;DHT22;34689;51.644;5.618;2022-11-18T11:16:33;11.70;99.90
48876;DHT22;34689;51.644;5.618;2022-11-18T11:19:02;11.70;99.90
48876;DHT22;34689;51.644;5.618;2022-11-18T11:21:28;11.60;99.90
48876;DHT22;34689;51.644;5.618;2022-11-18T11:23:54;11.60;99.90
48876;DHT22;34689;51.644;5.618;2022-11-18T11:29:24;11.50;99.90
48876;DHT22;34689;51.644;5.618;2022-11-18T11:37:22;11.20;99.90
48876;DHT22;34689;51.644;5.618;2022-11-18T11:40:20;11.20;99.90
48876;DHT22;34689;51.644;5.618;2022-11-18T11:57:32;11.10;99.90
48876;DHT22;34689;51.644;5.618;2022-11-18T12:00:10;11.10;99.90
48876;DHT22;34689;51.644;5.618;2022-11-18T12:05:40;11.10;99.90
48876;DHT22;34689;51.644;5.618;2022-11-18T12:08:22;11.10;99.90
48876;DHT22;34689;51.644;5.618;2022-11-18T12:19:00;11.00;99.90
48876;DHT22;34689;51.644;5.618;2022-11-18T12:26:46;10.90;99.90
48876;DHT22;34689;51.644;5.618;2022-11-18T12:29:21;10.90;99.90
48876;DHT22;34689;51.644;5.618;2022-11-18T12:31:53;10.90;99.90
48876;DHT22;34689;51.644;5.618;2022-11-18T12:34:40;10.80;99.90
48876;DHT22;34689;51.644;5.618;2022-11-18T12:42:42;10.90;99.90
48876;DHT22;34689;51.644;5.618;2022-11-18T12:48:27;11.00;99.90
48876;DHT22;34689;51.644;5.618;2022-11-18T12:50:55;11.00;99.90
48876;DHT22;34689;51.644;5.618;2022-11-18T12:55:56;11.00;99.90
48876;DHT22;34689;51.644;5.618;2022-11-18T12:58:24;11.10;99.90
48876;DHT22;34689;51.644;5.618;2022-11-18T13:00:50;11.10;99.90
48876;DHT22;34689;51.644;5.618;2022-11-18T13:03:24;11.10;99.90
48876;DHT22;34689;51.644;5.618;2022-11-18T13:06:00;11.10;99.90
48876;DHT22;34689;51.644;5.618;2022-11-18T13:08:27;11.10;99.90
48876;DHT22;34689;51.644;5.618;2022-11-18T13:10:56;11.10;99.90
48876;DHT22;34689;51.644;5.618;2022-11-18T13:13:43;11.10;99.90
48876;DHT22;34689;51.644;5.618;2022-11-18T13:16:21;11.20;99.90
48876;DHT22;34689;51.644;5.618;2022-11-18T13:19:06;11.20;99.90
48876;DHT22;34689;51.644;5.618;2022-11-18T13:21:32;11.20;99.90
48876;DHT22;34689;51.644;5.618;2022-11-18T13:24:18;11.20;99.90
48876;DHT22;34689;51.644;5.618;2022-11-18T13:26:52;11.10;99.90
48876;DHT22;34689;51.644;5.618;2022-11-18T13:34:26;11.10;99.90
48876;DHT22;34689;51.644;5.618;2022-11-18T13:36:54;11.10;99.90
48876;DHT22;34689;51.644;5.618;2022-11-18T13:39:29;11.10;99.90
48876;DHT22;34689;51.644;5.618;2022-11-18T13:44:29;11.10;99.90
48876;DHT22;34689;51.644;5.618;2022-11-18T13:49:54;11.10;99.90
48876;DHT22;34689;51.644;5.618;2022-11-18T13:52:50;11.10;99.90
48876;DHT22;34689;51.644;5.618;2022-11-18T13:55:23;11.10;99.90
48876;DHT22;34689;51.644;5.618;2022-11-18T13:58:32;11.10;99.90
48876;DHT22;34689;51.644;5.618;2022-11-18T14:00:59;11.10;99.90
48876;DHT22;34689;51.644;5.618;2022-11-18T14:06:08;11.00;99.90
48876;DHT22;34689;51.644;5.618;2022-11-18T14:08:36;11.00;99.90
48876;DHT22;34689;51.644;5.618;2022-11-18T14:11:03;11.00;99.90
48876;DHT22;34689;51.644;5.618;2022-11-18T14:15:58;11.00;99.90
48876;DHT22;34689;51.644;5.618;2022-11-18T14:18:35;11.00;99.90
48876;DHT22;34689;51.644;5.618;2022-11-18T14:21:04;11.00;99.90
48876;DHT22;34689;51.644;5.618;2022-11-18T14:23:34;11.00;99.90
48876;DHT22;34689;51.644;5.618;2022-11-18T14:26:03;11.00;99.90
48876;DHT22;34689;51.644;5.618;2022-11-18T14:28:33;11.00;99.90
48876;DHT22;34689;51.644;5.618;2022-11-18T14:36:47;11.00;99.90
48876;DHT22;34689;51.644;5.618;2022-11-18T14:39:28;11.00;99.90
48876;DHT22;34689;51.644;5.618;2022-11-18T14:41:55;11.00;99.90
48876;DHT22;34689;51.644;5.618;2022-11-18T14:44:25;10.90;99.90
48876;DHT22;34689;51.644;5.618;2022-11-18T14:47:01;11.00;99.90
48876;DHT22;34689;51.644;5.618;2022-11-18T14:49:28;11.00;99.90
48876;DHT22;34689;51.644;5.618;2022-11-18T14:51:56;11.00;99.90
48876;DHT22;34689;51.644;5.618;2022-11-18T14:54:24;10.90;99.90
48876;DHT22;34689;51.644;5.618;2022-11-18T14:56:50;10.90;99.90
48876;DHT22;34689;51.644;5.618;2022-11-18T14:59:18;10.90;99.90
48876;DHT22;34689;51.644;5.618;2022-11-18T15:01:44;10.90;99.90
48876;DHT22;34689;51.644;5.618;2022-11-18T15:04:10;10.90;99.90
48876;DHT22;34689;51.644;5.618;2022-11-18T15:06:38;10.90;99.90
48876;DHT22;34689;51.644;5.618;2022-11-18T15:09:04;10.90;99.90
48876;DHT22;34689;51.644;5.618;2022-11-18T15:11:30;10.80;99.90
48876;DHT22;34689;51.644;5.618;2022-11-18T15:13:56;10.80;99.90
48876;DHT22;34689;51.644;5.618;2022-11-18T15:16:24;10.80;99.90
48876;DHT22;34689;51.644;5.618;2022-11-18T15:18:52;10.80;99.90
48876;DHT22;34689;51.644;5.618;2022-11-18T15:21:19;10.80;99.90
48876;DHT22;34689;51.644;5.618;2022-11-18T15:23:45;10.80;99.90
48876;DHT22;34689;51.644;5.618;2022-11-18T15:26:31;10.70;99.90
48876;DHT22;34689;51.644;5.618;2022-11-18T15:28:58;10.70;99.90
48876;DHT22;34689;51.644;5.618;2022-11-18T15:31:24;10.70;99.90
48876;DHT22;34689;51.644;5.618;2022-11-18T15:33:50;10.70;99.90
48876;DHT22;34689;51.644;5.618;2022-11-18T15:36:21;10.70;99.90
48876;DHT22;34689;51.644;5.618;2022-11-18T15:38:48;10.60;99.90
48876;DHT22;34689;51.644;5.618;2022-11-18T15:41:24;10.60;99.90
48876;DHT22;34689;51.644;5.618;2022-11-18T15:43:51;10.70;99.90
48876;DHT22;34689;51.644;5.618;2022-11-18T15:46:19;10.60;99.90
48876;DHT22;34689;51.644;5.618;2022-11-18T15:48:45;10.60;99.90
48876;DHT22;34689;51.644;5.618;2022-11-18T15:51:11;10.60;99.90
48876;DHT22;34689;51.644;5.618;2022-11-18T15:53:37;10.60;99.90
48876;DHT22;34689;51.644;5.618;2022-11-18T16:01:20;10.60;99.90
48876;DHT22;34689;51.644;5.618;2022-11-18T16:03:46;10.50;99.90
48876;DHT22;34689;51.644;5.618;2022-11-18T16:06:11;10.50;99.90
48876;DHT22;34689;51.644;5.618;2022-11-18T16:08:37;10.50;99.90
48876;DHT22;34689;51.644;5.618;2022-11-18T16:11:03;10.50;99.90
48876;DHT22;34689;51.644;5.618;2022-11-18T16:13:46;10.50;99.90
48876;DHT22;34689;51.644;5.618;2022-11-18T16:16:19;10.50;99.90
48876;DHT22;34689;51.644;5.618;2022-11-18T16:18:45;10.50;99.90
48876;DHT22;34689;51.644;5.618;2022-11-18T16:21:11;10.50;99.90
48876;DHT22;34689;51.644;5.618;2022-11-18T16:23:36;10.50;99.90
48876;DHT22;34689;51.644;5.618;2022-11-18T16:26:02;10.40;99.90
48876;DHT22;34689;51.644;5.618;2022-11-18T16:28:28;10.40;99.90
48876;DHT22;34689;51.644;5.618;2022-11-18T16:30:53;10.50;99.90
48876;DHT22;34689;51.644;5.618;2022-11-18T16:33:37;10.40;99.90
48876;DHT22;34689;51.644;5.618;2022-11-18T16:36:03;10.50;99.90
48876;DHT22;34689;51.644;5.618;2022-11-18T16:38:29;10.40;99.90
48876;DHT22;34689;51.644;5.618;2022-11-18T16:40:58;10.40;99.90
48876;DHT22;34689;51.644;5.618;2022-11-18T16:43:24;10.40;99.90
48876;DHT22;34689;51.644;5.618;2022-11-18T16:45:54;10.40;99.90
48876;DHT22;34689;51.644;5.618;2022-11-18T16:48:23;10.40;99.90
48876;DHT22;34689;51.644;5.618;2022-11-18T16:51:05;10.40;99.90
48876;DHT22;34689;51.644;5.618;2022-11-18T16:53:31;10.40;99.90
48876;DHT22;34689;51.644;5.618;2022-11-18T16:56:01;10.40;99.90
48876;DHT22;34689;51.644;5.618;2022-11-18T16:58:28;10.30;99.90
48876;DHT22;34689;51.644;5.618;2022-11-18T17:00:53;10.40;99.90
48876;DHT22;34689;51.644;5.618;2022-11-18T17:03:19;10.40;99.90
48876;DHT22;34689;51.644;5.618;2022-11-18T17:05:45;10.30;99.90
48876;DHT22;34689;51.644;5.618;2022-11-18T17:08:11;10.30;99.90
48876;DHT22;34689;51.644;5.618;2022-11-18T17:10:36;10.20;99.90
48876;DHT22;34689;51.644;5.618;2022-11-18T17:13:02;10.20;99.90
48876;DHT22;34689;51.644;5.618;2022-11-18T17:15:28;10.20;99.90
48876;DHT22;34689;51.644;5.618;2022-11-18T17:17:53;10.20;99.90
48876;DHT22;34689;51.644;5.618;2022-11-18T17:20:19;10.20;99.90
48876;DHT22;34689;51.644;5.618;2022-11-18T17:22:45;10.20;99.90
48876;DHT22;34689;51.644;5.618;2022-11-18T17:25:10;10.10;99.90
48876;DHT22;34689;51.644;5.618;2022-11-18T17:27:36;10.10;99.90
48876;DHT22;34689;51.644;5.618;2022-11-18T17:30:02;10.10;99.90
48876;DHT22;34689;51.644;5.618;2022-11-18T17:32:29;10.10;99.90
48876;DHT22;34689;51.644;5.618;2022-11-18T17:34:57;10.10;99.90
48876;DHT22;34689;51.644;5.618;2022-11-18T17:37:22;10.10;99.90
48876;DHT22;34689;51.644;5.618;2022-11-18T17:39:48;10.10;99.90
48876;DHT22;34689;51.644;5.618;2022-11-18T17:42:13;10.10;99.90
48876;DHT22;34689;51.644;5.618;2022-11-18T17:44:39;10.10;99.90
48876;DHT22;34689;51.644;5.618;2022-11-18T17:47:05;10.10;99.90
48876;DHT22;34689;51.644;5.618;2022-11-18T17:49:31;10.10;99.90
48876;DHT22;34689;51.644;5.618;2022-11-18T17:51:56;10.10;99.90
48876;DHT22;34689;51.644;5.618;2022-11-18T17:54:22;10.10;99.90
48876;DHT22;34689;51.644;5.618;2022-11-18T17:56:48;10.10;99.90
48876;DHT22;34689;51.644;5.618;2022-11-18T17:59:16;10.10;99.90
48876;DHT22;34689;51.644;5.618;2022-11-18T18:01:43;10.00;99.90
48876;DHT22;34689;51.644;5.618;2022-11-18T18:04:09;10.10;99.90
48876;DHT22;34689;51.644;5.618;2022-11-18T18:06:35;10.00;99.90
48876;DHT22;34689;51.644;5.618;2022-11-18T18:09:03;10.10;99.90
48876;DHT22;34689;51.644;5.618;2022-11-18T18:11:29;10.00;99.90
48876;DHT22;34689;51.644;5.618;2022-11-18T18:13:55;10.00;99.90
48876;DHT22;34689;51.644;5.618;2022-11-18T18:16:43;10.00;99.90
48876;DHT22;34689;51.644;5.618;2022-11-18T18:19:12;10.00;99.90
48876;DHT22;34689;51.644;5.618;2022-11-18T18:21:38;10.10;99.90
48876;DHT22;34689;51.644;5.618;2022-11-18T18:24:04;10.00;99.90